createdAt,value
2019-03-01T00:01:13.071Z,98787.45
2019-03-01T00:03:42.460Z,98792.95
2019-03-01T00:06:23.584Z,98795.22
2019-03-01T00:08:55.874Z,98797.45
2019-03-01T00:11:37.230Z,98796.83
2019-03-01T00:14:25.643Z,98800.12
2019-03-01T00:17:09.658Z,98792.27
2019-03-01T00:19:47.454Z,98789.77
2019-03-01T00:22:37.714Z,98785.95
2019-03-01T00:25:18.680Z,98777.08
2019-03-01T00:28:02.645Z,98780.83
2019-03-01T00:30:43.440Z,98773.37
2019-03-01T00:33:27.628Z,98767.66
2019-03-01T00:35:59.946Z,98756.02
2019-03-01T00:38:35.099Z,98757.49
2019-03-01T00:41:10.081Z,98753.36
2019-03-01T00:43:57.093Z,98741.14
2019-03-01T00:46:26.454Z,98736.65
2019-03-01T00:48:55.800Z,98737.09
2019-03-01T00:51:25.161Z,98736.12
2019-03-01T00:53:54.505Z,98730.71
2019-03-01T00:56:23.936Z,98738.20
2019-03-01T00:58:53.312Z,98734.28
2019-03-01T01:01:22.674Z,98733.17
2019-03-01T01:03:52.120Z,98734.08
2019-03-01T01:06:21.469Z,98727.58
2019-03-01T01:08:50.891Z,98729.09
2019-03-01T01:11:20.241Z,98730.34
2019-03-01T01:13:49.679Z,98727.41
2019-03-01T01:16:19.148Z,98731.77
2019-03-01T01:18:48.500Z,98737.53
2019-03-01T01:21:17.852Z,98744.81
2019-03-01T01:23:47.194Z,98743.26
2019-03-01T01:26:16.550Z,98739.16
2019-03-01T01:28:45.968Z,98727.89
2019-03-01T01:31:15.307Z,98729.02
2019-03-01T01:33:44.723Z,98726.77
2019-03-01T01:36:13.776Z,98723.61
2019-03-01T01:38:43.204Z,98716.14
2019-03-01T01:41:12.606Z,98707.58
2019-03-01T01:43:41.946Z,98711.02
2019-03-01T01:46:11.397Z,98709.64
2019-03-01T01:48:40.803Z,98709.06
2019-03-01T01:51:10.165Z,98708.88
2019-03-01T01:53:39.532Z,98714.78
2019-03-01T01:56:08.879Z,98713.66
2019-03-01T01:58:38.238Z,98724.94
2019-03-01T02:01:06.992Z,98721.86
2019-03-01T02:03:36.405Z,98717.19
2019-03-01T02:06:05.755Z,98717.15
2019-03-01T02:08:35.111Z,98712.91
2019-03-01T02:11:03.929Z,98709.36
2019-03-01T02:13:32.745Z,98713.34
2019-03-01T02:16:01.592Z,98710.84
2019-03-01T02:18:30.612Z,98715.80
2019-03-01T02:20:59.449Z,98715.80
2019-03-01T02:23:28.848Z,98722.33
2019-03-01T02:25:57.599Z,98722.91
2019-03-01T02:28:26.455Z,98720.61
2019-03-01T02:31:01.614Z,98725.79
2019-03-01T02:33:31.041Z,98734.13
2019-03-01T02:36:00.405Z,98733.09
2019-03-01T02:38:29.822Z,98733.11
2019-03-01T02:40:59.154Z,98730.67
2019-03-01T02:43:28.581Z,98735.52
2019-03-01T02:45:58.002Z,98732.55
2019-03-01T02:48:27.383Z,98732.46
2019-03-01T02:50:56.791Z,98725.80
2019-03-01T02:53:26.209Z,98732.07
2019-03-01T02:55:55.584Z,98737.38
2019-03-01T02:58:24.930Z,98735.13
2019-03-01T03:00:54.370Z,98736.88
2019-03-01T03:03:23.805Z,98732.86
2019-03-01T03:06:11.062Z,98736.23
2019-03-01T03:08:40.676Z,98739.41
2019-03-01T03:11:10.081Z,98731.36
2019-03-01T03:13:39.421Z,98737.63
2019-03-01T03:16:08.849Z,98731.40
2019-03-01T03:18:38.276Z,98732.80
2019-03-01T03:21:07.695Z,98738.05
2019-03-01T03:23:37.062Z,98736.48
2019-03-01T03:26:06.471Z,98738.14
2019-03-01T03:28:35.899Z,98733.48
2019-03-01T03:31:05.324Z,98742.83
2019-03-01T03:33:34.729Z,98733.11
2019-03-01T03:36:04.144Z,98729.55
2019-03-01T03:38:33.495Z,98725.91
2019-03-01T03:41:02.920Z,98731.16
2019-03-01T03:43:32.281Z,98736.10
2019-03-01T03:46:01.697Z,98734.97
2019-03-01T03:48:31.029Z,98722.80
2019-03-01T03:51:00.448Z,98724.27
2019-03-01T03:53:29.871Z,98725.02
2019-03-01T03:55:59.298Z,98723.44
2019-03-01T03:58:28.648Z,98724.11
2019-03-01T04:00:58.282Z,98715.91
2019-03-01T04:03:27.797Z,98726.02
2019-03-01T04:05:57.152Z,98725.90
2019-03-01T04:08:26.542Z,98722.09
2019-03-01T04:10:55.894Z,98724.61
2019-03-01T04:13:25.246Z,98729.74
2019-03-01T04:15:54.654Z,98727.42
2019-03-01T04:18:24.047Z,98722.08
2019-03-01T04:20:53.358Z,98718.16
2019-03-01T04:23:22.781Z,98719.11
2019-03-01T04:25:52.203Z,98719.47
2019-03-01T04:28:21.634Z,98711.14
2019-03-01T04:30:50.999Z,98705.35
2019-03-01T04:33:20.345Z,98714.39
2019-03-01T04:35:49.773Z,98721.88
2019-03-01T04:38:19.100Z,98722.75
2019-03-01T04:40:48.511Z,98713.95
2019-03-01T04:43:17.934Z,98716.77
2019-03-01T04:45:47.355Z,98712.92
2019-03-01T04:48:16.764Z,98723.58
2019-03-01T04:50:46.110Z,98719.38
2019-03-01T04:53:15.569Z,98714.25
2019-03-01T04:55:44.964Z,98716.76
2019-03-01T04:58:14.385Z,98713.12
2019-03-01T05:00:43.727Z,98725.64
2019-03-01T05:03:13.267Z,98726.55
2019-03-01T05:05:42.726Z,98724.50
2019-03-01T05:08:12.160Z,98742.64
2019-03-01T05:10:41.512Z,98745.92
2019-03-01T05:13:10.920Z,98750.11
2019-03-01T05:15:40.289Z,98759.08
2019-03-01T05:18:09.658Z,98762.44
2019-03-01T05:20:38.796Z,98771.21
2019-03-01T05:23:08.237Z,98776.81
2019-03-01T05:25:37.594Z,98780.72
2019-03-01T05:28:07.069Z,98777.91
2019-03-01T05:30:36.492Z,98770.25
2019-03-01T05:33:05.932Z,98770.22
2019-03-01T05:35:35.347Z,98772.47
2019-03-01T05:38:04.762Z,98777.86
2019-03-01T05:40:34.104Z,98784.13
2019-03-01T05:43:03.599Z,98783.73
2019-03-01T05:45:32.965Z,98786.06
2019-03-01T05:48:02.321Z,98784.49
2019-03-01T05:50:31.681Z,98782.33
2019-03-01T05:53:01.035Z,98791.45
2019-03-01T05:55:30.465Z,98796.06
2019-03-01T05:58:20.984Z,98790.46
2019-03-01T06:00:51.602Z,98800.88
2019-03-01T06:03:47.629Z,98798.80
2019-03-01T06:06:22.433Z,98804.28
2019-03-01T06:09:27.690Z,98802.83
2019-03-01T06:12:19.426Z,98804.00
2019-03-01T06:15:10.978Z,98806.02
2019-03-01T06:17:46.060Z,98811.14
2019-03-01T06:20:33.240Z,98807.52
2019-03-01T06:23:23.386Z,98804.27
2019-03-01T06:25:55.736Z,98814.48
2019-03-01T06:28:28.078Z,98817.86
2019-03-01T06:31:09.090Z,98812.73
2019-03-01T06:33:47.141Z,98812.80
2019-03-01T06:36:34.354Z,98820.06
2019-03-01T06:39:16.839Z,98817.86
2019-03-01T06:42:08.893Z,98819.45
2019-03-01T06:44:55.831Z,98819.63
2019-03-01T06:47:45.777Z,98830.64
2019-03-01T06:50:19.324Z,98819.44
2019-03-01T06:52:48.983Z,98827.97
2019-03-01T06:55:30.424Z,98806.68
2019-03-01T06:57:59.911Z,98832.84
2019-03-01T07:00:30.932Z,98830.62
2019-03-01T07:03:01.271Z,98835.73
2019-03-01T07:05:30.648Z,98825.92
2019-03-01T07:07:59.986Z,98825.36
2019-03-01T07:10:29.367Z,98824.67
2019-03-01T07:12:58.731Z,98812.34
2019-03-01T07:15:28.155Z,98814.09
2019-03-01T07:17:57.600Z,98810.95
2019-03-01T07:20:27.029Z,98813.70
2019-03-01T07:22:56.428Z,98820.19
2019-03-01T07:25:25.856Z,98816.66
2019-03-01T07:27:55.292Z,98810.65
2019-03-01T07:30:24.653Z,98805.88
2019-03-01T07:32:54.020Z,98815.12
2019-03-01T07:35:23.365Z,98811.02
2019-03-01T07:37:52.732Z,98813.77
2019-03-01T07:40:22.100Z,98823.66
2019-03-01T07:42:51.540Z,98814.13
2019-03-01T07:45:21.580Z,98809.38
2019-03-01T07:47:50.954Z,98811.16
2019-03-01T07:50:20.313Z,98821.67
2019-03-01T07:52:49.681Z,98823.63
2019-03-01T07:55:19.118Z,98825.13
2019-03-01T07:57:49.733Z,98822.04
2019-03-01T08:00:19.647Z,98816.06
2019-03-01T08:02:49.037Z,98812.06
2019-03-01T08:05:18.411Z,98817.56
2019-03-01T08:07:55.759Z,98813.78
2019-03-01T08:10:22.494Z,98820.67
2019-03-01T08:12:49.961Z,98816.11
2019-03-01T08:15:19.323Z,98820.14
2019-03-01T08:17:48.810Z,98813.98
2019-03-01T08:20:19.046Z,98820.45
2019-03-01T08:22:49.664Z,98824.40
2019-03-01T08:25:23.641Z,98816.88
2019-03-01T08:27:50.659Z,98814.45
2019-03-01T08:30:20.130Z,98811.10
2019-03-01T08:32:49.506Z,98815.67
2019-03-01T08:35:19.437Z,98803.23
2019-03-01T08:37:49.758Z,98803.16
2019-03-01T08:40:20.101Z,98811.67
2019-03-01T08:42:49.558Z,98804.84
2019-03-01T08:45:22.187Z,98802.67
2019-03-01T08:47:51.609Z,98808.27
2019-03-01T08:50:21.046Z,98806.94
2019-03-01T08:52:50.484Z,98801.61
2019-03-01T08:55:30.331Z,98798.91
2019-03-01T08:58:03.436Z,98802.13
2019-03-01T09:00:39.868Z,98794.22
2019-03-01T09:03:12.220Z,98794.22
2019-03-01T09:05:41.591Z,98802.78
2019-03-01T09:08:10.972Z,98794.29
2019-03-01T09:10:40.404Z,98797.47
2019-03-01T09:13:09.850Z,98804.45
2019-03-01T09:15:39.231Z,98804.78
2019-03-01T09:18:11.598Z,98808.30
2019-03-01T09:20:39.773Z,98797.48
2019-03-01T09:23:21.146Z,98805.47
2019-03-01T09:25:41.369Z,98805.47
2019-03-01T09:28:11.388Z,98800.84
2019-03-01T09:30:43.528Z,98799.98
2019-03-01T09:33:11.934Z,98797.80
2019-03-01T09:35:43.919Z,98811.32
2019-03-01T09:38:13.385Z,98800.29
2019-03-01T09:40:42.822Z,98797.30
2019-03-01T09:43:12.284Z,98793.70
2019-03-01T09:45:41.666Z,98801.71
2019-03-01T09:48:12.235Z,98797.84
2019-03-01T09:50:42.262Z,98789.03
2019-03-01T09:53:11.619Z,98779.53
2019-03-01T09:55:41.066Z,98788.97
2019-03-01T09:58:10.426Z,98789.63
2019-03-01T10:00:56.573Z,98786.66
2019-03-01T10:03:25.677Z,98785.66
2019-03-01T10:05:55.144Z,98779.22
2019-03-01T10:08:24.523Z,98783.27
2019-03-01T10:10:53.974Z,98774.45
2019-03-01T10:13:23.350Z,98777.92
2019-03-01T10:15:52.718Z,98780.55
2019-03-01T10:18:22.144Z,98776.20
2019-03-01T10:20:51.584Z,98771.47
2019-03-01T10:23:21.013Z,98769.88
2019-03-01T10:25:50.501Z,98774.50
2019-03-01T10:28:19.848Z,98762.33
2019-03-01T10:30:49.214Z,98760.06
2019-03-01T10:33:18.600Z,98751.52
2019-03-01T10:35:48.024Z,98755.78
2019-03-01T10:38:17.460Z,98754.69
2019-03-01T10:40:46.826Z,98748.31
2019-03-01T10:43:16.210Z,98747.08
2019-03-01T10:45:45.639Z,98757.31
2019-03-01T10:48:15.078Z,98755.59
2019-03-01T10:50:44.510Z,98753.67
2019-03-01T10:53:14.054Z,98749.48
2019-03-01T10:55:43.488Z,98753.80
2019-03-01T10:58:12.876Z,98746.58
2019-03-01T11:00:42.344Z,98748.59
2019-03-01T11:03:11.748Z,98745.05
2019-03-01T11:05:41.227Z,98741.41
2019-03-01T11:08:10.599Z,98742.94
2019-03-01T11:10:40.832Z,98728.31
2019-03-01T11:13:12.738Z,98733.70
2019-03-01T11:15:42.235Z,98727.80
2019-03-01T11:18:11.660Z,98724.23
2019-03-01T11:20:41.090Z,98730.44
2019-03-01T11:23:10.457Z,98720.53
2019-03-01T11:25:39.892Z,98719.05
2019-03-01T11:28:10.542Z,98716.45
2019-03-01T11:30:40.217Z,98705.13
2019-03-01T11:33:09.573Z,98709.59
2019-03-01T11:35:38.999Z,98703.24
2019-03-01T11:38:08.443Z,98698.88
2019-03-01T11:40:39.210Z,98706.61
2019-03-01T11:43:08.584Z,98700.01
2019-03-01T11:45:38.026Z,98699.09
2019-03-01T11:48:07.504Z,98692.03
2019-03-01T11:50:36.936Z,98692.20
2019-03-01T11:53:06.369Z,98686.78
2019-03-01T11:55:35.818Z,98690.53
2019-03-01T11:58:05.204Z,98687.55
2019-03-01T12:00:34.681Z,98682.70
2019-03-01T12:03:04.038Z,98679.39
2019-03-01T12:05:33.527Z,98684.52
2019-03-01T12:08:02.974Z,98683.31
2019-03-01T12:10:32.620Z,98678.26
2019-03-01T12:13:01.997Z,98671.97
2019-03-01T12:15:31.438Z,98663.55
2019-03-01T12:18:00.810Z,98663.55
2019-03-01T12:20:32.522Z,98661.94
2019-03-01T12:23:01.885Z,98661.07
2019-03-01T12:25:31.323Z,98661.07
2019-03-01T12:28:00.805Z,98657.36
2019-03-01T12:30:30.241Z,98654.20
2019-03-01T12:32:59.609Z,98655.50
2019-03-01T12:35:29.055Z,98650.23
2019-03-01T12:37:58.508Z,98652.30
2019-03-01T12:40:31.543Z,98652.30
2019-03-01T12:43:00.976Z,98648.69
2019-03-01T12:45:30.368Z,98635.81
2019-03-01T12:47:59.744Z,98634.52
2019-03-01T12:50:29.278Z,98631.09
2019-03-01T12:52:58.698Z,98639.01
2019-03-01T12:55:29.244Z,98639.01
2019-03-01T12:57:58.694Z,98627.47
2019-03-01T13:00:40.203Z,98631.02
2019-03-01T13:03:09.883Z,98624.45
2019-03-01T13:05:39.557Z,98615.20
2019-03-01T13:08:08.911Z,98619.72
2019-03-01T13:10:40.140Z,98619.72
2019-03-01T13:13:09.637Z,98622.47
2019-03-01T13:15:39.006Z,98612.36
2019-03-01T13:18:10.239Z,98620.31
2019-03-01T13:20:39.697Z,98615.30
2019-03-01T13:23:09.560Z,98615.60
2019-03-01T13:25:39.010Z,98604.36
2019-03-01T13:28:08.447Z,98607.39
2019-03-01T13:30:37.894Z,98605.59
2019-03-01T13:33:07.286Z,98601.95
2019-03-01T13:35:36.702Z,98601.57
2019-03-01T13:38:06.088Z,98598.84
2019-03-01T13:40:35.525Z,98594.36
2019-03-01T13:43:04.902Z,98600.05
2019-03-01T13:45:34.336Z,98603.47
2019-03-01T13:48:03.700Z,98596.55
2019-03-01T13:50:33.082Z,98595.07
2019-03-01T13:53:02.447Z,98585.98
2019-03-01T13:55:31.817Z,98591.50
2019-03-01T13:58:01.294Z,98591.50
2019-03-01T14:00:30.716Z,98595.13
2019-03-01T14:03:00.145Z,98591.06
2019-03-01T14:05:29.596Z,98586.53
2019-03-01T14:08:08.377Z,98590.03
2019-03-01T14:10:30.403Z,98581.87
2019-03-01T14:12:59.841Z,98579.70
2019-03-01T14:15:30.020Z,98584.08
2019-03-01T14:18:01.240Z,98571.23
2019-03-01T14:20:30.641Z,98579.47
2019-03-01T14:23:00.052Z,98568.80
2019-03-01T14:25:29.490Z,98566.92
2019-03-01T14:28:02.217Z,98570.11
2019-03-01T14:30:33.267Z,98571.00
2019-03-01T14:33:01.287Z,98557.22
2019-03-01T14:35:30.736Z,98558.94
2019-03-01T14:38:00.197Z,98555.52
2019-03-01T14:40:29.650Z,98552.56
2019-03-01T14:42:59.108Z,98559.72
2019-03-01T14:45:33.248Z,98552.23
2019-03-01T14:48:04.970Z,98549.63
2019-03-01T14:50:34.759Z,98547.38
2019-03-01T14:53:04.191Z,98541.41
2019-03-01T14:55:39.675Z,98545.24
2019-03-01T14:58:11.965Z,98551.55
2019-03-01T15:00:49.619Z,98548.51
2019-03-01T15:03:33.052Z,98546.20
2019-03-01T15:06:02.429Z,98546.69
2019-03-01T15:08:31.799Z,98548.16
2019-03-01T15:11:04.271Z,98546.59
2019-03-01T15:13:35.819Z,98547.95
2019-03-01T15:16:06.048Z,98547.80
2019-03-01T15:18:35.997Z,98547.03
2019-03-01T15:21:06.658Z,98551.04
2019-03-01T15:23:36.027Z,98554.00
2019-03-01T15:26:05.703Z,98558.34
2019-03-01T15:28:43.709Z,98555.11
2019-03-01T15:31:13.163Z,98557.47
2019-03-01T15:33:46.502Z,98567.09
2019-03-01T15:36:17.450Z,98558.19
2019-03-01T15:38:44.831Z,98562.51
2019-03-01T15:41:14.269Z,98563.50
2019-03-01T15:43:43.713Z,98560.66
2019-03-01T15:46:14.357Z,98565.77
2019-03-01T15:48:44.269Z,98565.11
2019-03-01T15:51:13.656Z,98565.36
2019-03-01T15:53:43.039Z,98568.97
2019-03-01T15:56:12.568Z,98575.91
2019-03-01T15:58:42.004Z,98574.83
2019-03-01T16:01:12.115Z,98575.30
2019-03-01T16:03:41.593Z,98570.27
2019-03-01T16:06:17.310Z,98573.20
2019-03-01T16:08:43.871Z,98572.29
2019-03-01T16:11:13.662Z,98566.29
2019-03-01T16:13:47.765Z,98570.66
2019-03-01T16:16:14.576Z,98567.49
2019-03-01T16:18:43.999Z,98570.16
2019-03-01T16:21:13.417Z,98570.55
2019-03-01T16:23:42.854Z,98580.72
2019-03-01T16:26:12.297Z,98586.06
2019-03-01T16:28:41.734Z,98583.14
2019-03-01T16:31:11.146Z,98584.00
2019-03-01T16:33:40.689Z,98587.56
2019-03-01T16:36:11.676Z,98583.80
2019-03-01T16:38:41.390Z,98588.28
2019-03-01T16:41:12.289Z,98589.21
2019-03-01T16:43:41.655Z,98595.67
2019-03-01T16:46:11.116Z,98593.31
2019-03-01T16:48:40.567Z,98598.02
2019-03-01T16:51:10.226Z,98610.66
2019-03-01T16:53:40.492Z,98608.58
2019-03-01T16:56:10.955Z,98609.29
2019-03-01T16:58:40.326Z,98613.99
2019-03-01T17:01:09.765Z,98618.18
2019-03-01T17:03:39.200Z,98619.66
2019-03-01T17:06:10.458Z,98624.87
2019-03-01T17:08:40.473Z,98619.16
2019-03-01T17:11:10.015Z,98625.36
2019-03-01T17:13:39.390Z,98626.00
2019-03-01T17:16:08.806Z,98628.90
2019-03-01T17:18:38.253Z,98629.19
2019-03-01T17:21:08.723Z,98625.71
2019-03-01T17:23:39.234Z,98628.09
2019-03-01T17:26:09.403Z,98626.77
2019-03-01T17:28:38.848Z,98628.91
2019-03-01T17:31:08.220Z,98628.84
2019-03-01T17:33:39.230Z,98630.45
2019-03-01T17:36:08.935Z,98636.02
2019-03-01T17:38:43.541Z,98636.08
2019-03-01T17:41:09.813Z,98645.61
2019-03-01T17:43:40.260Z,98641.22
2019-03-01T17:46:09.709Z,98651.09
2019-03-01T17:48:39.160Z,98647.83
2019-03-01T17:51:08.793Z,98648.52
2019-03-01T17:53:39.712Z,98648.14
2019-03-01T17:56:09.150Z,98656.26
2019-03-01T17:58:38.572Z,98652.11
2019-03-01T18:01:08.025Z,98656.11
2019-03-01T18:03:37.485Z,98655.00
2019-03-01T18:06:06.855Z,98663.19
2019-03-01T18:08:39.705Z,98664.69
2019-03-01T18:11:08.793Z,98668.09
2019-03-01T18:13:38.536Z,98668.48
2019-03-01T18:16:07.988Z,98667.78
2019-03-01T18:18:37.445Z,98667.61
2019-03-01T18:21:10.166Z,98673.77
2019-03-01T18:23:38.981Z,98680.50
2019-03-01T18:26:08.466Z,98681.16
2019-03-01T18:28:38.819Z,98676.56
2019-03-01T18:31:08.416Z,98682.16
2019-03-01T18:33:37.899Z,98681.40
2019-03-01T18:36:08.179Z,98684.56
2019-03-01T18:38:37.752Z,98678.84
2019-03-01T18:41:07.212Z,98685.46
2019-03-01T18:43:36.676Z,98688.73
2019-03-01T18:46:06.113Z,98699.24
2019-03-01T18:48:35.537Z,98694.96
2019-03-01T18:51:06.933Z,98694.16
2019-03-01T18:53:36.048Z,98703.04
2019-03-01T18:56:05.434Z,98709.38
2019-03-01T18:58:34.804Z,98705.58
2019-03-01T19:01:07.813Z,98703.16
2019-03-01T19:03:36.562Z,98701.12
2019-03-01T19:06:06.619Z,98706.76
2019-03-01T19:08:36.431Z,98710.34
2019-03-01T19:11:06.202Z,98707.34
2019-03-01T19:13:37.392Z,98712.62
2019-03-01T19:16:06.920Z,98713.22
2019-03-01T19:18:36.355Z,98722.20
2019-03-01T19:21:06.272Z,98733.47
2019-03-01T19:23:35.729Z,98735.28
2019-03-01T19:26:05.185Z,98739.93
2019-03-01T19:28:34.662Z,98740.42
2019-03-01T19:31:04.011Z,98745.79
2019-03-01T19:33:34.598Z,98745.89
2019-03-01T19:36:04.596Z,98746.80
2019-03-01T19:38:33.961Z,98743.65
2019-03-01T19:41:03.398Z,98739.09
2019-03-01T19:43:32.755Z,98738.98
2019-03-01T19:46:02.199Z,98737.77
2019-03-01T19:48:34.530Z,98733.33
2019-03-01T19:51:02.787Z,98727.80
2019-03-01T19:53:32.165Z,98727.30
2019-03-01T19:56:01.611Z,98729.39
2019-03-01T19:58:30.993Z,98727.32
2019-03-01T20:01:00.419Z,98736.86
2019-03-01T20:03:29.867Z,98741.70
2019-03-01T20:05:59.295Z,98746.50
2019-03-01T20:08:29.596Z,98746.56
2019-03-01T20:10:59.742Z,98744.61
2019-03-01T20:13:29.107Z,98751.53
2019-03-01T20:15:58.489Z,98742.83
2019-03-01T20:18:27.936Z,98755.73
2019-03-01T20:20:57.354Z,98758.22
2019-03-01T20:23:29.539Z,98757.65
2019-03-01T20:25:57.941Z,98761.16
2019-03-01T20:28:27.367Z,98756.48
2019-03-01T20:30:56.810Z,98766.14
2019-03-01T20:33:27.151Z,98758.13
2019-03-01T20:35:57.254Z,98762.99
2019-03-01T20:38:26.691Z,98761.11
2019-03-01T20:40:56.125Z,98758.97
2019-03-01T20:43:25.589Z,98759.01
2019-03-01T20:45:54.947Z,98756.70
2019-03-01T20:48:25.665Z,98751.36
2019-03-01T20:50:55.558Z,98749.21
2019-03-01T20:53:24.931Z,98755.64
2019-03-01T20:55:54.384Z,98750.13
2019-03-01T20:58:23.752Z,98757.59
2019-03-01T21:00:53.238Z,98751.73
2019-03-01T21:03:24.073Z,98747.31
2019-03-01T21:05:53.680Z,98743.13
2019-03-01T21:08:28.795Z,98751.05
2019-03-01T21:10:54.180Z,98757.44
2019-03-01T21:13:23.527Z,98757.27
2019-03-01T21:15:53.293Z,98753.02
2019-03-01T21:18:22.780Z,98758.31
2019-03-01T21:20:53.732Z,98754.85
2019-03-01T21:23:23.212Z,98759.67
2019-03-01T21:25:52.596Z,98759.44
2019-03-01T21:28:21.953Z,98751.09
2019-03-01T21:30:51.376Z,98751.57
2019-03-01T21:33:24.115Z,98750.09
2019-03-01T21:35:52.100Z,98751.97
2019-03-01T21:38:21.462Z,98751.83
2019-03-01T21:40:50.958Z,98755.64
2019-03-01T21:43:20.369Z,98749.21
2019-03-01T21:45:49.797Z,98754.45
2019-03-01T21:48:21.943Z,98750.87
2019-03-01T21:50:51.261Z,98755.55
2019-03-01T21:53:20.667Z,98759.27
2019-03-01T21:55:50.084Z,98749.73
2019-03-01T21:58:19.510Z,98751.66
2019-03-01T22:00:48.887Z,98748.83
2019-03-01T22:03:18.246Z,98741.17
2019-03-01T22:05:48.566Z,98745.80
2019-03-01T22:08:18.836Z,98743.84
2019-03-01T22:10:48.180Z,98740.24
2019-03-01T22:13:17.715Z,98740.64
2019-03-01T22:15:47.156Z,98739.40
2019-03-01T22:18:16.592Z,98736.88
2019-03-01T22:20:46.017Z,98738.66
2019-03-01T22:23:16.488Z,98735.98
2019-03-01T22:25:46.056Z,98739.38
2019-03-01T22:28:15.589Z,98738.05
2019-03-01T22:30:44.960Z,98732.00
2019-03-01T22:33:17.437Z,98726.20
2019-03-01T22:35:45.643Z,98731.61
2019-03-01T22:38:15.084Z,98726.58
2019-03-01T22:40:44.529Z,98728.73
2019-03-01T22:43:13.902Z,98725.06
2019-03-01T22:45:45.495Z,98727.20
2019-03-01T22:48:14.439Z,98727.89
2019-03-01T22:50:43.861Z,98723.58
2019-03-01T22:53:13.290Z,98727.98
2019-03-01T22:55:42.728Z,98723.78
2019-03-01T22:58:12.165Z,98726.58
2019-03-01T23:01:08.570Z,98734.23
2019-03-01T23:03:38.000Z,98730.58
2019-03-01T23:06:07.371Z,98735.94
2019-03-01T23:08:36.730Z,98726.20
2019-03-01T23:11:06.257Z,98723.48
2019-03-01T23:13:35.680Z,98724.32
2019-03-01T23:16:05.524Z,98730.09
2019-03-01T23:18:37.609Z,98734.59
2019-03-01T23:21:06.103Z,98733.08
2019-03-01T23:23:35.519Z,98730.16
2019-03-01T23:26:04.934Z,98729.67
2019-03-01T23:28:34.349Z,98725.80
2019-03-01T23:31:04.662Z,98735.09
2019-03-01T23:33:34.075Z,98731.73
2019-03-01T23:36:03.436Z,98732.30
2019-03-01T23:38:32.870Z,98735.39
2019-03-01T23:41:02.242Z,98730.93
2019-03-01T23:43:31.784Z,98733.22
2019-03-01T23:46:01.134Z,98731.77
2019-03-01T23:48:30.572Z,98729.23
2019-03-01T23:50:59.932Z,98728.70
2019-03-01T23:53:30.888Z,98731.73
2019-03-01T23:56:00.939Z,98730.50
2019-03-01T23:58:30.370Z,98729.55
